createdAt,value
2018-10-09T00:01:23.905Z,12.50
2018-10-09T00:06:27.449Z,12.33
2018-10-09T00:11:30.645Z,13.90
2018-10-09T00:16:34.122Z,12.93
2018-10-09T00:21:37.248Z,12.73
2018-10-09T00:26:40.440Z,13.00
2018-10-09T00:31:43.555Z,13.93
2018-10-09T00:36:46.711Z,18.57
2018-10-09T00:41:49.836Z,13.57
2018-10-09T00:46:52.994Z,12.37
2018-10-09T00:51:56.182Z,12.27
2018-10-09T00:56:59.248Z,13.33
2018-10-09T01:02:02.372Z,15.03
2018-10-09T01:07:05.529Z,15.17
2018-10-09T01:12:08.715Z,12.50
2018-10-09T01:17:11.861Z,15.10
2018-10-09T01:22:15.256Z,16.57
2018-10-09T01:27:18.446Z,13.93
2018-10-09T01:32:21.664Z,15.43
2018-10-09T01:37:24.812Z,13.13
2018-10-09T01:42:27.936Z,12.77
2018-10-09T01:47:31.109Z,12.87
2018-10-09T01:52:34.246Z,14.70
2018-10-09T01:57:37.433Z,12.03
2018-10-09T02:02:40.664Z,13.93
2018-10-09T02:07:43.840Z,15.77
2018-10-09T02:12:46.957Z,15.17
2018-10-09T02:17:50.179Z,13.27
2018-10-09T02:22:53.286Z,14.50
2018-10-09T02:27:56.401Z,14.87
2018-10-09T02:32:59.616Z,14.13
2018-10-09T02:38:02.756Z,13.07
2018-10-09T02:43:05.844Z,19.97
2018-10-09T02:48:09.025Z,15.87
2018-10-09T02:53:12.129Z,14.57
2018-10-09T02:58:15.311Z,21.57
2018-10-09T03:03:18.476Z,16.93
2018-10-09T03:08:21.647Z,20.03
2018-10-09T03:13:24.767Z,17.70
2018-10-09T03:18:27.993Z,13.33
2018-10-09T03:23:31.196Z,14.80
2018-10-09T03:28:34.334Z,16.73
2018-10-09T03:33:37.490Z,17.73
2018-10-09T03:38:40.680Z,18.93
2018-10-09T03:43:43.900Z,17.40
2018-10-09T03:48:47.007Z,17.00
2018-10-09T03:53:50.195Z,20.73
2018-10-09T03:58:53.342Z,17.33
2018-10-09T04:03:56.769Z,15.97
2018-10-09T04:08:59.977Z,20.37
2018-10-09T04:14:03.034Z,20.35
2018-10-09T04:19:06.247Z,18.23
2018-10-09T04:24:09.406Z,17.40
2018-10-09T04:29:12.527Z,15.97
2018-10-09T04:34:15.647Z,18.57
2018-10-09T04:39:18.802Z,19.37
2018-10-09T04:44:21.951Z,16.90
2018-10-09T04:49:25.055Z,18.47
2018-10-09T04:54:28.345Z,15.73
2018-10-09T04:59:31.467Z,20.93
2018-10-09T05:04:34.695Z,19.13
2018-10-09T05:09:37.759Z,20.47
2018-10-09T05:14:40.921Z,17.47
2018-10-09T05:19:44.097Z,16.73
2018-10-09T05:24:47.261Z,18.10
2018-10-09T05:29:50.422Z,17.67
2018-10-09T05:34:53.576Z,17.83
2018-10-09T05:39:56.731Z,19.13
2018-10-09T05:44:59.899Z,16.77
2018-10-09T05:50:03.054Z,19.00
2018-10-09T05:55:06.711Z,18.33
2018-10-09T06:00:10.416Z,17.47
2018-10-09T06:05:13.572Z,19.07
2018-10-09T06:10:16.734Z,17.50
2018-10-09T06:15:19.934Z,17.67
2018-10-09T06:20:23.103Z,17.73
2018-10-09T06:25:26.221Z,17.83
2018-10-09T06:30:29.393Z,18.43
2018-10-09T06:35:32.674Z,20.07
2018-10-09T06:40:35.879Z,19.47
2018-10-09T06:45:38.956Z,21.97
2018-10-09T06:50:42.113Z,17.47
2018-10-09T06:55:45.497Z,17.10
2018-10-09T07:00:48.637Z,21.10
2018-10-09T07:05:51.792Z,22.70
2018-10-09T07:10:55.355Z,28.73
2018-10-09T07:15:58.534Z,25.40
2018-10-09T07:21:01.706Z,22.30
2018-10-09T07:26:04.874Z,23.05
2018-10-09T07:31:08.002Z,19.47
2018-10-09T07:36:11.190Z,20.80
2018-10-09T07:41:14.282Z,28.77
2018-10-09T07:46:17.425Z,23.43
2018-10-09T07:51:20.583Z,24.72
2018-10-09T07:56:23.753Z,22.03
2018-10-09T08:01:26.926Z,26.00
2018-10-09T08:06:30.109Z,30.43
2018-10-09T08:11:33.237Z,23.30
2018-10-09T08:16:36.612Z,28.40
2018-10-09T08:21:39.742Z,22.67
2018-10-09T08:26:42.902Z,29.63
2018-10-09T08:31:46.063Z,27.93
2018-10-09T08:36:49.239Z,30.40
2018-10-09T08:41:52.409Z,28.93
2018-10-09T08:46:55.586Z,29.43
2018-10-09T08:51:58.827Z,27.80
2018-10-09T08:57:01.958Z,26.20
2018-10-09T09:02:05.125Z,26.00
2018-10-09T09:07:08.246Z,25.60
2018-10-09T09:12:11.434Z,25.93
2018-10-09T09:17:14.555Z,24.07
2018-10-09T09:22:17.723Z,34.23
2018-10-09T09:27:20.893Z,26.10
2018-10-09T09:32:24.039Z,30.17
2018-10-09T09:37:27.187Z,30.23
2018-10-09T09:42:30.350Z,27.67
2018-10-09T09:47:33.594Z,21.00
2018-10-09T09:52:36.715Z,29.25
2018-10-09T09:57:39.896Z,24.25
2018-10-09T10:02:43.004Z,22.87
2018-10-09T10:07:46.206Z,28.12
2018-10-09T10:12:49.359Z,29.32
2018-10-09T10:17:52.440Z,26.12
2018-10-09T10:22:55.615Z,25.27
2018-10-09T10:27:58.824Z,23.50
2018-10-09T10:33:01.952Z,23.73
2018-10-09T10:38:05.176Z,19.57
2018-10-09T10:43:08.353Z,23.60
2018-10-09T10:48:11.554Z,21.42
2018-10-09T10:53:14.742Z,22.75
2018-10-09T10:58:17.874Z,31.65
2018-10-09T11:03:21.033Z,25.08
2018-10-09T11:08:24.275Z,24.95
2018-10-09T11:13:27.417Z,26.52
2018-10-09T11:18:30.609Z,27.48
2018-10-09T11:23:33.797Z,27.15
2018-10-09T11:28:37.043Z,27.93
2018-10-09T11:33:40.184Z,27.77
2018-10-09T11:38:43.390Z,29.92
2018-10-09T11:43:46.527Z,28.15
2018-10-09T11:48:49.698Z,31.93
2018-10-09T11:53:52.868Z,30.12
2018-10-09T11:58:56.025Z,30.52
2018-10-09T12:03:59.200Z,30.50
2018-10-09T12:09:02.341Z,30.27
2018-10-09T12:14:05.499Z,25.70
2018-10-09T12:19:08.671Z,24.50
2018-10-09T12:24:11.918Z,26.52
2018-10-09T12:29:15.054Z,23.77
2018-10-09T12:34:18.240Z,23.45
2018-10-09T12:39:21.387Z,26.68
2018-10-09T12:44:24.615Z,25.12
2018-10-09T12:49:27.662Z,26.87
2018-10-09T12:54:30.865Z,27.70
2018-10-09T12:59:34.040Z,28.02
2018-10-09T13:04:37.232Z,29.17
2018-10-09T13:09:40.448Z,27.13
2018-10-09T13:14:43.537Z,26.80
2018-10-09T13:19:46.684Z,28.75
2018-10-09T13:24:49.910Z,30.05
2018-10-09T13:29:53.060Z,31.95
2018-10-09T13:34:56.257Z,32.42
2018-10-09T13:39:59.449Z,33.15
2018-10-09T13:45:02.607Z,32.58
2018-10-09T13:50:05.759Z,32.53
2018-10-09T13:55:08.919Z,32.48
2018-10-09T14:00:12.110Z,33.28
2018-10-09T14:05:15.255Z,34.75
2018-10-09T14:10:18.414Z,32.17
2018-10-09T14:15:21.612Z,34.20
2018-10-09T14:20:24.751Z,31.75
2018-10-09T14:25:27.921Z,29.37
2018-10-09T14:30:31.091Z,31.15
2018-10-09T14:35:34.209Z,28.30
2018-10-09T14:40:37.342Z,27.90
2018-10-09T14:45:40.494Z,28.77
2018-10-09T14:50:43.727Z,27.32
2018-10-09T14:55:46.879Z,31.20
2018-10-09T15:00:50.040Z,26.12
2018-10-09T15:05:53.234Z,32.23
2018-10-09T15:10:56.415Z,26.57
2018-10-09T15:16:00.430Z,27.40
2018-10-09T15:21:03.594Z,26.95
2018-10-09T15:26:07.304Z,25.77
2018-10-09T15:31:10.414Z,23.65
2018-10-09T15:36:13.567Z,26.02
2018-10-09T15:41:17.106Z,31.87
2018-10-09T15:46:20.286Z,29.72
2018-10-09T15:51:23.453Z,27.80
2018-10-09T15:56:26.689Z,23.22
2018-10-09T16:01:29.827Z,25.27
2018-10-09T16:06:33.094Z,25.05
2018-10-09T16:11:36.304Z,25.95
2018-10-09T16:16:39.773Z,27.60
2018-10-09T16:21:42.894Z,26.97
2018-10-09T16:26:46.091Z,26.90
2018-10-09T16:31:49.273Z,25.72
2018-10-09T16:36:52.408Z,25.23
2018-10-09T16:41:55.504Z,26.20
2018-10-09T16:47:00.663Z,23.00
2018-10-09T16:52:03.834Z,23.20
2018-10-09T16:57:06.991Z,31.43
2018-10-09T17:02:10.172Z,28.35
2018-10-09T17:07:13.512Z,24.40
2018-10-09T17:12:16.622Z,26.03
2018-10-09T17:17:19.694Z,22.97
2018-10-09T17:22:23.311Z,25.43
2018-10-09T17:27:26.358Z,27.87
2018-10-09T17:32:29.587Z,29.77
2018-10-09T17:37:32.702Z,26.50
2018-10-09T17:42:36.782Z,28.83
2018-10-09T17:47:40.046Z,23.73
2018-10-09T17:52:43.217Z,24.73
2018-10-09T17:57:46.376Z,24.60
2018-10-09T18:02:49.788Z,29.83
2018-10-09T18:07:52.987Z,25.57
2018-10-09T18:12:56.444Z,30.67
2018-10-09T18:17:59.542Z,29.13
2018-10-09T18:23:02.785Z,34.77
2018-10-09T18:28:06.607Z,30.60
2018-10-09T18:33:09.826Z,32.00
2018-10-09T18:38:13.035Z,29.57
2018-10-09T18:43:16.222Z,30.73
2018-10-09T18:48:19.285Z,28.07
2018-10-09T18:53:22.467Z,29.13
2018-10-09T18:58:25.703Z,33.37
2018-10-09T19:03:28.877Z,34.13
2018-10-09T19:08:32.005Z,34.80
2018-10-09T19:13:35.177Z,31.13
2018-10-09T19:18:38.394Z,32.93
2018-10-09T19:23:41.667Z,37.23
2018-10-09T19:28:44.795Z,30.70
2018-10-09T19:33:48.189Z,35.20
2018-10-09T19:38:51.347Z,31.90
2018-10-09T19:43:54.505Z,34.93
2018-10-09T19:48:57.651Z,32.63
2018-10-09T19:54:00.771Z,31.83
2018-10-09T19:59:03.966Z,31.30
2018-10-09T20:04:07.108Z,33.87
2018-10-09T20:09:11.818Z,31.47
2018-10-09T20:14:15.175Z,35.40
2018-10-09T20:19:18.383Z,32.97
2018-10-09T20:24:21.593Z,34.87
2018-10-09T20:29:24.723Z,37.60
2018-10-09T20:34:27.855Z,33.47
2018-10-09T20:39:31.115Z,34.20
2018-10-09T20:44:34.287Z,30.57
2018-10-09T20:49:37.393Z,28.83
2018-10-09T20:54:40.716Z,29.57
2018-10-09T20:59:43.820Z,28.67
2018-10-09T21:04:46.998Z,29.70
2018-10-09T21:09:50.185Z,25.93
2018-10-09T21:14:53.306Z,26.67
2018-10-09T21:19:56.481Z,26.13
2018-10-09T21:24:59.666Z,25.30
2018-10-09T21:30:02.870Z,29.37
2018-10-09T21:35:06.110Z,28.00
2018-10-09T21:40:09.345Z,28.90
2018-10-09T21:45:12.570Z,24.63
2018-10-09T21:50:15.666Z,27.73
2018-10-09T21:55:18.856Z,26.97
2018-10-09T22:00:21.983Z,27.50
2018-10-09T22:05:25.173Z,26.35
2018-10-09T22:10:28.380Z,23.60
2018-10-09T22:15:31.560Z,21.70
2018-10-09T22:20:34.747Z,19.90
2018-10-09T22:25:37.983Z,23.47
2018-10-09T22:30:41.122Z,21.93
2018-10-09T22:35:44.275Z,23.03
2018-10-09T22:40:47.409Z,21.47
2018-10-09T22:45:50.652Z,21.30
2018-10-09T22:50:53.810Z,25.13
2018-10-09T22:55:56.932Z,23.90
2018-10-09T23:01:00.078Z,22.50
2018-10-09T23:06:03.293Z,23.73
2018-10-09T23:11:07.178Z,19.90
2018-10-09T23:16:10.307Z,21.50
2018-10-09T23:21:13.411Z,19.20
2018-10-09T23:26:16.550Z,20.33
2018-10-09T23:31:19.740Z,23.23
2018-10-09T23:36:22.947Z,20.63
2018-10-09T23:41:26.122Z,24.70
2018-10-09T23:46:29.353Z,23.83
2018-10-09T23:51:32.483Z,19.73
2018-10-09T23:56:35.707Z,20.77
